createdAt,value
2022-09-21T00:00:29.763Z,52.50
2022-09-21T00:01:30.031Z,52.56
2022-09-21T00:02:30.154Z,52.47
2022-09-21T00:03:30.161Z,52.60
2022-09-21T00:04:30.316Z,52.56
2022-09-21T00:05:30.490Z,52.60
2022-09-21T00:06:30.601Z,52.56
2022-09-21T00:07:30.694Z,52.76
2022-09-21T00:08:30.820Z,52.80
2022-09-21T00:09:30.941Z,52.76
2022-09-21T00:10:31.082Z,52.70
2022-09-21T00:11:31.242Z,52.76
2022-09-21T00:12:31.348Z,52.50
2022-09-21T00:13:31.494Z,52.93
2022-09-21T00:14:31.625Z,52.83
2022-09-21T00:15:31.718Z,52.73
2022-09-21T00:16:31.988Z,52.80
2022-09-21T00:17:31.989Z,52.76
2022-09-21T00:18:32.119Z,52.73
2022-09-21T00:19:32.253Z,52.40
2022-09-21T00:20:32.377Z,52.70
2022-09-21T00:21:32.657Z,52.90
2022-09-21T00:22:32.627Z,53.17
2022-09-21T00:23:32.767Z,52.66
2022-09-21T00:24:32.901Z,52.63
2022-09-21T00:25:33.060Z,52.90
2022-09-21T00:26:33.205Z,52.80
2022-09-21T00:27:33.295Z,52.90
2022-09-21T00:28:33.427Z,52.80
2022-09-21T00:29:33.568Z,52.73
2022-09-21T00:30:33.736Z,52.97
2022-09-21T00:31:34.007Z,52.70
2022-09-21T00:32:33.959Z,53.07
2022-09-21T00:33:34.084Z,52.86
2022-09-21T00:34:34.214Z,52.83
2022-09-21T00:35:34.357Z,53.10
2022-09-21T00:36:34.523Z,53.00
2022-09-21T00:37:34.603Z,53.41
2022-09-21T00:38:34.754Z,53.00
2022-09-21T00:39:34.893Z,52.93
2022-09-21T00:40:35.055Z,53.13
2022-09-21T00:41:35.172Z,53.27
2022-09-21T00:42:35.288Z,53.13
2022-09-21T00:43:35.398Z,53.34
2022-09-21T00:44:35.519Z,53.07
2022-09-21T00:45:35.672Z,53.37
2022-09-21T00:46:35.785Z,53.58
2022-09-21T00:47:35.881Z,53.34
2022-09-21T00:48:36.030Z,53.44
2022-09-21T00:49:36.139Z,53.47
2022-09-21T00:50:36.306Z,53.44
2022-09-21T00:51:36.391Z,53.44
2022-09-21T00:52:37.479Z,53.72
2022-09-21T00:53:36.622Z,53.96
2022-09-21T00:54:36.780Z,53.65
2022-09-21T00:55:36.892Z,53.92
2022-09-21T00:56:37.059Z,53.78
2022-09-21T00:57:37.142Z,54.06
2022-09-21T00:58:37.280Z,53.82
2022-09-21T00:59:37.359Z,53.89
2022-09-21T01:00:37.647Z,53.99
2022-09-21T01:01:37.758Z,53.82
2022-09-21T01:02:37.761Z,53.92
2022-09-21T01:03:37.852Z,54.03
2022-09-21T01:04:37.992Z,53.92
2022-09-21T01:05:38.131Z,54.20
2022-09-21T01:06:38.319Z,54.13
2022-09-21T01:07:38.407Z,54.10
2022-09-21T01:08:38.543Z,54.13
2022-09-21T01:09:38.687Z,54.35
2022-09-21T01:10:38.858Z,54.03
2022-09-21T01:11:38.984Z,54.13
2022-09-21T01:12:39.099Z,54.10
2022-09-21T01:13:39.261Z,53.96
2022-09-21T01:14:39.326Z,54.10
2022-09-21T01:15:39.472Z,54.45
2022-09-21T01:16:39.656Z,54.52
2022-09-21T01:17:39.746Z,54.35
2022-09-21T01:18:39.823Z,54.13
2022-09-21T01:19:39.994Z,54.13
2022-09-21T01:20:40.081Z,54.17
2022-09-21T01:21:40.245Z,54.24
2022-09-21T01:22:40.371Z,54.38
2022-09-21T01:23:40.463Z,54.31
2022-09-21T01:24:40.600Z,53.82
2022-09-21T01:25:40.751Z,54.17
2022-09-21T01:26:40.883Z,54.06
2022-09-21T01:27:40.979Z,54.24
2022-09-21T01:28:41.113Z,54.35
2022-09-21T01:29:41.239Z,54.42
2022-09-21T01:30:43.743Z,54.27
2022-09-21T01:31:42.620Z,54.56
2022-09-21T01:32:41.647Z,54.52
2022-09-21T01:33:41.718Z,54.74
2022-09-21T01:34:41.889Z,54.92
2022-09-21T01:35:41.968Z,54.81
2022-09-21T01:36:42.118Z,54.99
2022-09-21T01:37:42.325Z,54.95
2022-09-21T01:38:42.378Z,55.10
2022-09-21T01:39:42.466Z,55.43
2022-09-21T01:40:42.730Z,55.35
2022-09-21T01:41:42.747Z,55.24
2022-09-21T01:42:42.896Z,55.65
2022-09-21T01:43:42.975Z,55.39
2022-09-21T01:44:43.136Z,55.91
2022-09-21T01:45:43.326Z,55.65
2022-09-21T01:46:43.346Z,56.33
2022-09-21T01:47:43.514Z,55.91
2022-09-21T01:48:43.621Z,55.99
2022-09-21T01:49:43.746Z,56.25
2022-09-21T01:50:43.864Z,56.21
2022-09-21T01:51:44.012Z,56.36
2022-09-21T01:52:44.283Z,56.17
2022-09-21T01:53:44.296Z,56.17
2022-09-21T01:54:44.413Z,56.52
2022-09-21T01:55:44.542Z,56.71
2022-09-21T01:56:44.652Z,56.59
2022-09-21T01:57:44.841Z,56.36
2022-09-21T01:58:44.959Z,56.40
2022-09-21T01:59:45.054Z,56.79
2022-09-21T02:00:45.230Z,56.52
2022-09-21T02:01:45.370Z,56.52
2022-09-21T02:02:45.531Z,56.63
2022-09-21T02:03:45.560Z,56.67
2022-09-21T02:04:45.726Z,56.90
2022-09-21T02:05:45.841Z,56.98
2022-09-21T02:06:45.994Z,56.83
2022-09-21T02:07:46.149Z,57.37
2022-09-21T02:08:46.259Z,57.25
2022-09-21T02:09:46.381Z,56.98
2022-09-21T02:10:46.518Z,57.14
2022-09-21T02:11:46.662Z,57.33
2022-09-21T02:12:46.868Z,57.41
2022-09-21T02:13:46.920Z,57.41
2022-09-21T02:14:47.079Z,57.81
2022-09-21T02:15:47.242Z,57.57
2022-09-21T02:16:47.314Z,57.61
2022-09-21T02:17:47.502Z,57.81
2022-09-21T02:18:47.580Z,57.69
2022-09-21T02:19:47.715Z,57.89
2022-09-21T02:20:47.859Z,58.09
2022-09-21T02:21:48.016Z,58.01
2022-09-21T02:22:48.146Z,58.21
2022-09-21T02:23:48.273Z,57.77
2022-09-21T02:24:48.398Z,57.69
2022-09-21T02:25:48.485Z,57.89
2022-09-21T02:26:48.647Z,57.97
2022-09-21T02:27:48.812Z,58.05
2022-09-21T02:28:48.867Z,57.89
2022-09-21T02:29:49.005Z,58.01
2022-09-21T02:30:49.163Z,57.85
2022-09-21T02:31:49.271Z,58.01
2022-09-21T02:32:49.462Z,57.65
2022-09-21T02:33:49.552Z,57.69
2022-09-21T02:34:49.670Z,58.13
2022-09-21T02:35:49.822Z,58.25
2022-09-21T02:36:49.952Z,58.05
2022-09-21T02:37:50.121Z,57.93
2022-09-21T02:38:50.251Z,58.09
2022-09-21T02:39:50.334Z,58.33
2022-09-21T02:40:50.490Z,58.25
2022-09-21T02:41:50.589Z,58.21
2022-09-21T02:42:51.720Z,58.17
2022-09-21T02:43:50.877Z,58.21
2022-09-21T02:44:50.959Z,58.42
2022-09-21T02:45:51.088Z,58.05
2022-09-21T02:46:51.277Z,58.38
2022-09-21T02:47:51.450Z,58.38
2022-09-21T02:48:51.477Z,58.54
2022-09-21T02:49:51.616Z,58.70
2022-09-21T02:50:51.780Z,58.62
2022-09-21T02:51:51.879Z,58.95
2022-09-21T02:52:52.076Z,58.66
2022-09-21T02:53:52.288Z,58.66
2022-09-21T02:54:52.327Z,58.62
2022-09-21T02:55:56.382Z,58.74
2022-09-21T02:56:52.554Z,58.66
2022-09-21T02:57:52.709Z,58.79
2022-09-21T02:58:52.798Z,58.99
2022-09-21T02:59:52.895Z,58.95
2022-09-21T03:00:53.098Z,59.16
2022-09-21T03:01:53.221Z,59.20
2022-09-21T03:02:53.338Z,59.16
2022-09-21T03:03:53.410Z,59.37
2022-09-21T03:04:53.529Z,59.33
2022-09-21T03:05:53.668Z,59.25
2022-09-21T03:06:53.783Z,59.25
2022-09-21T03:07:53.963Z,59.37
2022-09-21T03:08:54.054Z,59.50
2022-09-21T03:09:54.203Z,59.29
2022-09-21T03:10:54.320Z,59.54
2022-09-21T03:11:54.452Z,59.46
2022-09-21T03:12:54.660Z,59.58
2022-09-21T03:13:54.774Z,59.41
2022-09-21T03:14:54.831Z,59.41
2022-09-21T03:15:54.978Z,59.50
2022-09-21T03:16:55.079Z,59.50
2022-09-21T03:17:55.229Z,59.50
2022-09-21T03:18:55.348Z,59.54
2022-09-21T03:19:55.493Z,59.93
2022-09-21T03:20:55.561Z,59.88
2022-09-21T03:21:55.689Z,59.76
2022-09-21T03:22:55.895Z,59.80
2022-09-21T03:23:55.978Z,59.80
2022-09-21T03:24:56.117Z,59.67
2022-09-21T03:25:56.267Z,59.76
2022-09-21T03:26:56.361Z,59.63
2022-09-21T03:27:56.507Z,59.88
2022-09-21T03:28:56.599Z,59.80
2022-09-21T03:30:00.025Z,59.84
2022-09-21T03:30:57.909Z,60.10
2022-09-21T03:31:56.997Z,60.14
2022-09-21T03:32:57.258Z,60.06
2022-09-21T03:33:57.271Z,60.19
2022-09-21T03:34:57.392Z,60.19
2022-09-21T03:35:57.534Z,60.14
2022-09-21T03:36:57.706Z,60.27
2022-09-21T03:37:57.818Z,60.58
2022-09-21T03:38:57.902Z,60.40
2022-09-21T03:39:58.035Z,60.36
2022-09-21T03:40:58.217Z,60.53
2022-09-21T03:41:58.271Z,60.62
2022-09-21T03:42:58.451Z,60.71
2022-09-21T03:43:58.540Z,60.23
2022-09-21T03:44:58.683Z,60.62
2022-09-21T03:45:58.877Z,60.53
2022-09-21T03:46:58.954Z,61.02
2022-09-21T03:47:59.097Z,60.80
2022-09-21T03:48:59.353Z,61.16
2022-09-21T03:49:59.331Z,60.93
2022-09-21T03:50:59.436Z,61.43
2022-09-21T03:51:59.559Z,61.16
2022-09-21T03:52:59.728Z,61.74
2022-09-21T03:53:59.841Z,61.29
2022-09-21T03:54:59.977Z,61.47
2022-09-21T03:56:00.121Z,61.20
2022-09-21T03:57:00.238Z,61.56
2022-09-21T03:58:00.400Z,61.34
2022-09-21T03:59:00.519Z,61.65
2022-09-21T04:00:00.669Z,61.61
2022-09-21T04:01:00.768Z,61.47
2022-09-21T04:02:00.876Z,61.93
2022-09-21T04:03:01.178Z,61.74
2022-09-21T04:04:01.168Z,61.74
2022-09-21T04:05:01.279Z,61.79
2022-09-21T04:06:02.317Z,61.93
2022-09-21T04:07:01.495Z,61.88
2022-09-21T04:08:01.635Z,61.88
2022-09-21T04:09:01.795Z,62.07
2022-09-21T04:10:01.908Z,61.88
2022-09-21T04:11:02.042Z,61.79
2022-09-21T04:12:02.174Z,61.84
2022-09-21T04:13:02.364Z,61.97
2022-09-21T04:14:02.423Z,61.79
2022-09-21T04:15:02.573Z,61.56
2022-09-21T04:16:02.748Z,62.21
2022-09-21T04:17:02.842Z,62.07
2022-09-21T04:18:03.047Z,62.21
2022-09-21T04:19:03.102Z,62.07
2022-09-21T04:20:03.251Z,62.25
2022-09-21T04:21:03.392Z,61.79
2022-09-21T04:22:03.524Z,62.21
2022-09-21T04:23:03.762Z,62.39
2022-09-21T04:24:03.770Z,61.88
2022-09-21T04:25:03.913Z,62.49
2022-09-21T04:26:04.043Z,62.25
2022-09-21T04:27:04.190Z,62.39
2022-09-21T04:28:04.329Z,62.86
2022-09-21T04:29:04.435Z,62.62
2022-09-21T04:30:04.612Z,61.97
2022-09-21T04:31:04.750Z,62.02
2022-09-21T04:32:04.861Z,62.67
2022-09-21T04:33:05.021Z,61.79
2022-09-21T04:34:05.157Z,62.62
2022-09-21T04:35:05.276Z,62.44
2022-09-21T04:36:05.439Z,62.72
2022-09-21T04:37:05.527Z,62.72
2022-09-21T04:38:05.797Z,62.44
2022-09-21T04:39:05.775Z,62.62
2022-09-21T04:40:06.004Z,62.39
2022-09-21T04:41:06.015Z,62.91
2022-09-21T04:42:06.146Z,62.86
2022-09-21T04:43:06.351Z,63.34
2022-09-21T04:44:06.432Z,63.10
2022-09-21T04:45:06.574Z,63.48
2022-09-21T04:46:06.868Z,63.05
2022-09-21T04:47:06.842Z,63.24
2022-09-21T04:48:07.033Z,63.10
2022-09-21T04:49:07.107Z,63.53
2022-09-21T04:50:07.272Z,63.58
2022-09-21T04:51:07.352Z,62.67
2022-09-21T04:52:07.509Z,62.62
2022-09-21T04:53:07.630Z,62.72
2022-09-21T04:54:07.750Z,63.05
2022-09-21T04:55:07.911Z,62.96
2022-09-21T04:56:07.999Z,63.10
2022-09-21T04:57:08.142Z,63.44
2022-09-21T04:58:08.332Z,62.91
2022-09-21T04:59:08.432Z,63.97
2022-09-21T05:00:08.560Z,63.53
2022-09-21T05:01:08.765Z,63.72
2022-09-21T05:02:08.778Z,63.82
2022-09-21T05:03:08.945Z,64.41
2022-09-21T05:04:09.050Z,63.97
2022-09-21T05:05:09.170Z,63.48
2022-09-21T05:06:09.299Z,64.17
2022-09-21T05:07:09.450Z,64.02
2022-09-21T05:08:09.638Z,63.68
2022-09-21T05:09:09.696Z,64.61
2022-09-21T05:10:09.848Z,63.92
2022-09-21T05:11:10.926Z,64.51
2022-09-21T05:12:10.042Z,63.77
2022-09-21T05:13:10.201Z,64.22
2022-09-21T05:14:10.329Z,64.02
2022-09-21T05:15:10.452Z,64.36
2022-09-21T05:16:10.610Z,64.61
2022-09-21T05:17:10.697Z,64.81
2022-09-21T05:18:10.980Z,63.68
2022-09-21T05:19:10.948Z,64.07
2022-09-21T05:20:11.106Z,64.22
2022-09-21T05:21:11.204Z,64.97
2022-09-21T05:22:11.344Z,64.51
2022-09-21T05:23:16.131Z,64.97
2022-09-21T05:24:12.574Z,64.17
2022-09-21T05:25:11.694Z,65.02
2022-09-21T05:26:11.825Z,64.41
2022-09-21T05:27:11.960Z,64.26
2022-09-21T05:28:12.106Z,64.46
2022-09-21T05:29:12.235Z,65.32
2022-09-21T05:30:12.366Z,64.76
2022-09-21T05:31:18.152Z,64.61
2022-09-21T05:32:13.681Z,64.76
2022-09-21T05:33:12.827Z,65.27
2022-09-21T05:34:12.933Z,65.84
2022-09-21T05:35:13.047Z,64.76
2022-09-21T05:36:13.173Z,64.97
2022-09-21T05:37:13.297Z,64.71
2022-09-21T05:38:13.420Z,65.12
2022-09-21T05:39:13.528Z,65.58
2022-09-21T05:40:13.753Z,65.17
2022-09-21T05:41:13.855Z,64.46
2022-09-21T05:42:13.922Z,64.86
2022-09-21T05:43:14.143Z,65.32
2022-09-21T05:44:14.216Z,64.97
2022-09-21T05:45:14.329Z,65.17
2022-09-21T05:46:14.479Z,64.97
2022-09-21T05:47:14.567Z,64.86
2022-09-21T05:48:14.718Z,64.66
2022-09-21T05:49:14.870Z,64.92
2022-09-21T05:50:14.936Z,64.81
2022-09-21T05:51:15.086Z,64.76
2022-09-21T05:52:15.215Z,64.41
2022-09-21T05:53:15.435Z,64.26
2022-09-21T05:54:15.506Z,64.56
2022-09-21T05:55:15.597Z,64.66
2022-09-21T05:56:15.744Z,64.32
2022-09-21T05:57:15.841Z,64.46
2022-09-21T05:58:16.021Z,64.32
2022-09-21T05:59:16.132Z,64.41
2022-09-21T06:00:16.265Z,63.97
2022-09-21T06:01:16.360Z,64.26
2022-09-21T06:02:16.533Z,64.26
2022-09-21T06:03:17.830Z,63.53
2022-09-21T06:04:16.752Z,63.58
2022-09-21T06:05:16.896Z,63.82
2022-09-21T06:06:17.022Z,64.07
2022-09-21T06:07:17.142Z,63.92
2022-09-21T06:08:17.369Z,63.68
2022-09-21T06:09:17.429Z,63.68
2022-09-21T06:10:17.563Z,63.39
2022-09-21T06:11:17.690Z,63.29
2022-09-21T06:12:17.851Z,63.24
2022-09-21T06:13:17.970Z,62.91
2022-09-21T06:14:18.128Z,62.91
2022-09-21T06:15:18.225Z,63.29
2022-09-21T06:16:18.402Z,63.10
2022-09-21T06:17:18.428Z,62.58
2022-09-21T06:18:18.596Z,62.67
2022-09-21T06:19:18.690Z,62.34
2022-09-21T06:20:18.872Z,62.07
2022-09-21T06:21:18.967Z,61.61
2022-09-21T06:22:19.084Z,61.79
2022-09-21T06:23:19.214Z,61.25
2022-09-21T06:24:19.350Z,61.07
2022-09-21T06:25:19.996Z,61.20
2022-09-21T06:26:19.597Z,60.53
2022-09-21T06:27:19.697Z,60.53
2022-09-21T06:28:19.915Z,60.10
2022-09-21T06:29:19.986Z,59.58
2022-09-21T06:30:20.081Z,59.37
2022-09-21T06:31:20.205Z,59.25
2022-09-21T06:32:20.931Z,58.99
2022-09-21T06:33:20.628Z,58.87
2022-09-21T06:34:20.605Z,58.70
2022-09-21T06:35:20.745Z,58.58
2022-09-21T06:36:20.871Z,58.70
2022-09-21T06:37:20.993Z,58.46
2022-09-21T06:38:21.182Z,58.17
2022-09-21T06:39:21.288Z,57.69
2022-09-21T06:40:21.436Z,57.69
2022-09-21T06:41:21.673Z,57.25
2022-09-21T06:42:21.621Z,57.02
2022-09-21T06:43:21.813Z,56.71
2022-09-21T06:44:21.892Z,56.44
2022-09-21T06:45:22.044Z,55.95
2022-09-21T06:46:22.177Z,55.76
2022-09-21T06:47:22.252Z,55.61
2022-09-21T06:48:22.463Z,55.06
2022-09-21T06:49:22.530Z,54.67
2022-09-21T06:50:22.651Z,54.35
2022-09-21T06:51:22.778Z,53.99
2022-09-21T06:52:22.920Z,53.65
2022-09-21T06:53:23.146Z,53.54
2022-09-21T06:54:23.237Z,53.20
2022-09-21T06:55:23.312Z,52.73
2022-09-21T06:56:23.489Z,52.70
2022-09-21T06:57:23.588Z,52.07
2022-09-21T06:58:23.758Z,51.53
2022-09-21T06:59:23.807Z,51.21
2022-09-21T07:00:23.908Z,50.71
2022-09-21T07:01:24.112Z,50.44
2022-09-21T07:02:24.097Z,50.25
2022-09-21T07:03:24.267Z,50.74
2022-09-21T07:04:25.212Z,51.15
2022-09-21T07:05:24.477Z,51.81
2022-09-21T07:06:24.576Z,52.37
2022-09-21T07:07:24.656Z,51.65
2022-09-21T07:10:26.118Z,50.07
2022-09-21T07:11:25.188Z,49.95
2022-09-21T07:12:25.307Z,49.54
2022-09-21T07:13:25.647Z,49.42
2022-09-21T07:14:25.519Z,49.13
2022-09-21T07:15:25.676Z,49.19
2022-09-21T07:16:25.827Z,48.93
2022-09-21T07:17:25.915Z,48.84
2022-09-21T07:18:26.069Z,49.77
2022-09-21T07:19:26.167Z,51.56
2022-09-21T07:20:26.264Z,54.38
2022-09-21T07:21:26.365Z,57.02
2022-09-21T07:22:26.481Z,55.61
2022-09-21T07:23:26.644Z,54.81
2022-09-21T07:24:26.717Z,54.59
2022-09-21T07:25:26.868Z,55.39
2022-09-21T07:26:26.955Z,56.56
2022-09-21T07:27:27.104Z,58.17
2022-09-21T07:28:27.213Z,61.43
2022-09-21T07:29:27.342Z,63.63
2022-09-21T07:30:27.451Z,65.32
2022-09-21T07:31:27.569Z,65.32
2022-09-21T07:32:27.672Z,64.32
2022-09-21T07:33:27.850Z,63.92
2022-09-21T07:34:27.925Z,63.10
2022-09-21T07:35:28.049Z,62.96
2022-09-21T07:36:28.129Z,62.34
2022-09-21T07:37:28.264Z,61.52
2022-09-21T07:38:28.454Z,61.65
2022-09-21T07:39:28.552Z,61.16
2022-09-21T07:40:28.761Z,59.41
2022-09-21T07:41:28.770Z,58.54
2022-09-21T07:42:28.891Z,58.09
2022-09-21T07:43:29.022Z,57.41
2022-09-21T07:44:29.311Z,57.02
2022-09-21T07:45:29.281Z,57.02
2022-09-21T07:46:29.401Z,56.36
2022-09-21T07:47:29.500Z,56.48
2022-09-21T07:48:29.651Z,56.90
2022-09-21T07:49:29.771Z,56.56
2022-09-21T07:50:29.871Z,56.29
2022-09-21T07:51:29.971Z,55.47
2022-09-21T07:52:30.059Z,55.80
2022-09-21T07:53:30.230Z,56.02
2022-09-21T07:54:30.351Z,56.48
2022-09-21T07:55:30.429Z,56.90
2022-09-21T07:56:30.572Z,55.21
2022-09-21T07:57:30.698Z,55.35
2022-09-21T07:58:31.029Z,55.99
2022-09-21T07:59:30.987Z,56.44
2022-09-21T08:00:31.104Z,56.86
2022-09-21T08:01:31.320Z,57.33
2022-09-21T08:02:31.335Z,59.08
2022-09-21T08:03:31.463Z,60.67
2022-09-21T08:04:31.568Z,61.20
2022-09-21T08:05:31.721Z,61.84
2022-09-21T08:06:31.859Z,63.48
2022-09-21T08:07:32.626Z,66.47
2022-09-21T08:08:32.136Z,70.57
2022-09-21T08:09:32.324Z,73.82
2022-09-21T08:10:32.332Z,74.08
2022-09-21T08:11:32.489Z,72.91
2022-09-21T08:12:32.560Z,72.28
2022-09-21T08:13:32.803Z,70.15
2022-09-21T08:14:32.837Z,67.98
2022-09-21T08:15:50.154Z,65.48
2022-09-21T08:16:34.253Z,63.63
2022-09-21T08:17:33.149Z,60.98
2022-09-21T08:18:33.291Z,58.54
2022-09-21T08:19:33.493Z,57.10
2022-09-21T08:20:33.484Z,56.67
2022-09-21T08:21:33.623Z,57.14
2022-09-21T08:22:33.783Z,59.29
2022-09-21T08:23:33.932Z,62.58
2022-09-21T08:24:33.995Z,64.66
2022-09-21T08:25:34.097Z,67.05
2022-09-21T08:26:34.241Z,68.71
2022-09-21T08:27:34.284Z,69.05
2022-09-21T08:28:34.484Z,71.60
2022-09-21T08:29:34.528Z,75.01
2022-09-21T08:30:34.673Z,77.81
2022-09-21T08:31:34.769Z,81.94
2022-09-21T08:32:50.567Z,85.29
2022-09-21T08:33:36.186Z,88.17
2022-09-21T08:34:35.163Z,90.27
2022-09-21T08:35:35.282Z,88.92
2022-09-21T08:36:35.382Z,86.17
2022-09-21T08:37:35.543Z,89.40
2022-09-21T08:38:35.673Z,94.78
2022-09-21T08:39:35.833Z,95.32
2022-09-21T08:40:35.995Z,94.46
2022-09-21T08:41:36.041Z,98.51
2022-09-21T08:42:36.122Z,104.49
2022-09-21T08:43:36.329Z,106.83
2022-09-21T08:44:36.470Z,107.87
2022-09-21T08:45:36.501Z,113.14
2022-09-21T08:46:36.731Z,119.45
2022-09-21T08:47:36.781Z,121.01
2022-09-21T08:48:37.126Z,120.84
2022-09-21T08:49:37.042Z,126.90
2022-09-21T08:50:37.133Z,132.97
2022-09-21T08:51:37.245Z,135.78
2022-09-21T08:52:37.372Z,147.03
2022-09-21T08:53:37.662Z,148.86
2022-09-21T08:54:37.589Z,151.57
2022-09-21T08:55:37.681Z,187.75
2022-09-21T08:57:03.530Z,214.93
2022-09-21T08:57:38.946Z,242.57
2022-09-21T08:58:38.170Z,260.07
2022-09-21T08:59:38.230Z,263.62
2022-09-21T09:00:38.424Z,262.99
2022-09-21T09:01:38.541Z,250.73
2022-09-21T09:02:38.601Z,235.77
2022-09-21T09:03:41.167Z,229.51
2022-09-21T09:04:38.872Z,223.57
2022-09-21T09:05:38.997Z,224.02
2022-09-21T09:06:39.099Z,230.31
2022-09-21T09:07:39.210Z,243.65
2022-09-21T09:08:39.388Z,235.44
2022-09-21T09:09:39.429Z,236.62
2022-09-21T09:10:39.613Z,245.66
2022-09-21T09:11:39.709Z,246.77
2022-09-21T09:12:39.808Z,275.11
2022-09-21T09:13:40.061Z,302.79
2022-09-21T09:14:40.128Z,321.48
2022-09-21T09:15:40.248Z,338.04
2022-09-21T09:16:40.365Z,353.33
2022-09-21T09:17:40.468Z,330.21
2022-09-21T09:18:43.532Z,302.23
2022-09-21T09:19:40.667Z,291.49
2022-09-21T09:20:40.850Z,306.18
2022-09-21T09:21:40.947Z,334.93
2022-09-21T09:22:41.061Z,369.23
2022-09-21T09:23:41.188Z,362.70
2022-09-21T09:24:41.288Z,342.62
2022-09-21T09:25:41.403Z,324.34
2022-09-21T09:26:41.496Z,316.52
2022-09-21T09:27:41.659Z,321.79
2022-09-21T09:28:41.817Z,339.08
2022-09-21T09:29:41.858Z,357.17
2022-09-21T09:30:42.028Z,348.08
2022-09-21T09:31:42.206Z,363.50
2022-09-21T09:32:42.226Z,387.92
2022-09-21T09:33:42.383Z,402.68
2022-09-21T09:34:42.426Z,421.78
2022-09-21T09:35:42.539Z,433.01
2022-09-21T09:36:57.836Z,452.09
2022-09-21T09:37:43.766Z,466.97
2022-09-21T09:38:42.998Z,479.39
2022-09-21T09:39:42.997Z,438.99
2022-09-21T09:40:43.128Z,470.60
2022-09-21T09:41:43.217Z,493.58
2022-09-21T09:42:43.397Z,505.56
2022-09-21T09:43:43.666Z,519.34
2022-09-21T09:44:43.627Z,526.72
2022-09-21T09:45:43.736Z,520.15
2022-09-21T09:46:43.893Z,496.89
2022-09-21T09:47:43.966Z,502.13
2022-09-21T09:48:44.127Z,490.32
2022-09-21T09:49:44.204Z,477.33
2022-09-21T09:50:44.307Z,464.69
2022-09-21T09:51:44.416Z,499.50
2022-09-21T09:52:44.508Z,530.49
2022-09-21T09:53:44.686Z,552.93
2022-09-21T09:54:44.789Z,559.42
2022-09-21T09:55:44.884Z,574.86
2022-09-21T09:56:45.054Z,533.89
2022-09-21T09:57:45.164Z,496.89
2022-09-21T09:58:45.316Z,495.42
2022-09-21T09:59:45.385Z,516.12
2022-09-21T10:00:45.481Z,544.80
2022-09-21T10:01:45.655Z,564.16
2022-09-21T10:02:45.785Z,559.89
2022-09-21T10:03:45.893Z,544.80
2022-09-21T10:04:46.153Z,564.16
2022-09-21T10:05:46.105Z,567.03
2022-09-21T10:06:47.123Z,558.02
2022-09-21T10:07:46.338Z,563.68
2022-09-21T10:08:46.487Z,557.55
2022-09-21T10:09:46.565Z,545.69
2022-09-21T10:10:46.745Z,546.14
2022-09-21T10:11:46.855Z,558.95
2022-09-21T10:12:46.954Z,553.39
2022-09-21T10:13:47.147Z,552.01
2022-09-21T10:14:47.403Z,550.19
2022-09-21T10:15:47.325Z,554.77
2022-09-21T10:16:47.456Z,554.31
2022-09-21T10:17:47.574Z,575.85
2022-09-21T10:18:47.824Z,575.85
2022-09-21T10:19:47.824Z,572.88
2022-09-21T10:20:47.923Z,585.45
2022-09-21T10:21:51.985Z,591.69
2022-09-21T10:22:48.194Z,575.35
2022-09-21T10:23:48.390Z,581.88
2022-09-21T10:24:48.414Z,589.60
2022-09-21T10:25:48.534Z,587.00
2022-09-21T10:26:48.629Z,594.33
2022-09-21T10:27:48.774Z,604.56
2022-09-21T10:28:49.065Z,598.59
2022-09-21T10:29:49.074Z,625.55
2022-09-21T10:30:49.235Z,635.68
2022-09-21T10:31:49.303Z,624.96
2022-09-21T10:32:49.403Z,602.38
2022-09-21T10:33:49.575Z,624.38
2022-09-21T10:34:49.634Z,646.16
2022-09-21T10:35:49.743Z,674.25
2022-09-21T10:36:49.871Z,681.14
2022-09-21T10:37:49.973Z,681.83
2022-09-21T10:38:50.098Z,692.45
2022-09-21T10:39:50.223Z,693.17
2022-09-21T10:40:50.463Z,688.17
2022-09-21T10:41:50.447Z,665.50
2022-09-21T10:42:50.596Z,669.51
2022-09-21T10:43:50.736Z,671.53
2022-09-21T10:44:50.843Z,672.89
2022-09-21T10:45:50.947Z,664.18
2022-09-21T10:46:51.180Z,661.54
2022-09-21T10:47:51.203Z,641.18
2022-09-21T10:48:51.364Z,634.47
2022-09-21T10:49:51.465Z,620.31
2022-09-21T10:50:51.584Z,629.68
2022-09-21T10:51:51.670Z,627.90
2022-09-21T10:52:51.761Z,611.21
2022-09-21T10:53:53.921Z,621.47
2022-09-21T10:54:52.077Z,641.18
2022-09-21T10:56:04.869Z,660.89
2022-09-21T10:56:53.242Z,676.99
2022-09-21T10:57:52.381Z,674.93
2022-09-21T10:58:52.582Z,673.57
2022-09-21T10:59:52.692Z,681.14
2022-09-21T11:00:52.802Z,687.46
2022-09-21T11:01:53.016Z,679.06
2022-09-21T11:02:53.114Z,681.14
2022-09-21T11:03:53.222Z,683.23
2022-09-21T11:04:53.342Z,672.89
2022-09-21T11:05:53.462Z,681.14
2022-09-21T11:06:53.581Z,692.45
2022-09-21T11:07:53.690Z,683.23
2022-09-21T11:08:53.834Z,683.23
2022-09-21T11:09:53.932Z,679.75
2022-09-21T11:10:54.056Z,668.17
2022-09-21T11:11:54.161Z,668.84
2022-09-21T11:12:54.260Z,646.16
2022-09-21T11:13:54.402Z,665.50
2022-09-21T11:14:54.490Z,679.75
2022-09-21T11:15:54.846Z,662.20
2022-09-21T11:16:54.720Z,669.51
2022-09-21T11:17:54.882Z,689.59
2022-09-21T11:18:55.135Z,700.45
2022-09-21T11:19:55.100Z,707.14
2022-09-21T11:20:55.199Z,703.41
2022-09-21T11:21:55.290Z,719.34
2022-09-21T11:22:57.557Z,730.38
2022-09-21T11:23:55.589Z,745.06
2022-09-21T11:24:55.680Z,750.42
2022-09-21T11:25:55.782Z,766.36
2022-09-21T11:26:55.889Z,767.24
2022-09-21T11:27:55.992Z,745.06
2022-09-21T11:28:56.230Z,744.23
2022-09-21T11:29:56.290Z,733.59
2022-09-21T11:30:56.445Z,751.69
2022-09-21T11:31:57.323Z,766.80
2022-09-21T11:32:56.630Z,776.61
2022-09-21T11:33:56.809Z,774.81
2022-09-21T11:34:56.869Z,781.16
2022-09-21T11:35:56.992Z,770.34
2022-09-21T11:36:57.087Z,773.02
2022-09-21T11:37:57.239Z,770.34
2022-09-21T11:38:57.399Z,773.91
2022-09-21T11:39:57.448Z,781.61
2022-09-21T11:40:57.613Z,787.15
2022-09-21T11:41:57.659Z,810.56
2022-09-21T11:42:57.771Z,771.23
2022-09-21T11:44:00.579Z,760.68
2022-09-21T11:44:58.527Z,772.57
2022-09-21T11:45:58.141Z,775.71
2022-09-21T11:46:58.248Z,790.41
2022-09-21T11:47:58.347Z,780.24
2022-09-21T11:48:58.517Z,761.12
2022-09-21T11:50:19.214Z,761.55
2022-09-21T11:50:59.690Z,796.06
2022-09-21T11:51:59.483Z,817.01
2022-09-21T11:52:58.976Z,841.74
2022-09-21T11:53:59.097Z,844.94
2022-09-21T11:54:59.218Z,843.34
2022-09-21T11:55:59.317Z,807.13
2022-09-21T11:56:59.427Z,779.33
2022-09-21T11:57:59.538Z,751.69
2022-09-21T11:58:59.717Z,724.03
2022-09-21T11:59:59.765Z,706.39
2022-09-21T12:00:59.896Z,696.07
2022-09-21T12:02:00.077Z,681.14
2022-09-21T12:03:00.117Z,658.92
2022-09-21T12:04:00.327Z,644.91
2022-09-21T12:05:00.385Z,651.20
2022-09-21T12:06:00.505Z,651.20
2022-09-21T12:07:00.616Z,660.23
2022-09-21T12:08:00.706Z,656.98
2022-09-21T12:09:00.886Z,636.29
2022-09-21T12:10:00.985Z,635.08
2022-09-21T12:11:01.086Z,619.73
2022-09-21T12:12:01.195Z,626.72
2022-09-21T12:13:01.305Z,650.57
2022-09-21T12:14:01.445Z,662.86
2022-09-21T12:15:01.596Z,654.40
2022-09-21T12:16:01.696Z,653.12
2022-09-21T12:17:01.834Z,677.67
2022-09-21T12:18:01.942Z,699.72
2022-09-21T12:19:02.076Z,719.34
2022-09-21T12:20:02.193Z,732.78
2022-09-21T12:21:02.284Z,750.00
2022-09-21T12:22:02.431Z,790.88
2022-09-21T12:23:02.583Z,821.03
2022-09-21T12:24:02.833Z,806.65
2022-09-21T12:25:02.824Z,810.56
2022-09-21T12:26:02.939Z,817.51
2022-09-21T12:27:03.044Z,813.53
2022-09-21T12:28:03.145Z,843.34
2022-09-21T12:29:03.312Z,861.85
2022-09-21T12:30:03.358Z,861.29
2022-09-21T12:31:03.551Z,851.95
2022-09-21T12:32:03.644Z,817.51
2022-09-21T12:33:03.756Z,822.55
2022-09-21T12:34:03.910Z,827.65
2022-09-21T12:35:03.962Z,857.97
2022-09-21T12:36:04.073Z,875.41
2022-09-21T12:37:04.174Z,880.03
2022-09-21T12:38:04.333Z,864.08
2022-09-21T12:39:04.680Z,819.52
2022-09-21T12:40:04.589Z,775.26
2022-09-21T12:41:04.667Z,773.02
2022-09-21T12:42:04.813Z,769.45
2022-09-21T12:43:04.997Z,765.48
2022-09-21T12:44:05.152Z,782.53
2022-09-21T12:45:05.171Z,772.12
2022-09-21T12:46:05.342Z,792.28
2022-09-21T12:47:05.433Z,780.70
2022-09-21T12:48:05.521Z,752.54